createdAt,value
2023-05-15T00:00:13.044Z,2.95
2023-05-15T00:02:39.275Z,3.15
2023-05-15T00:05:08.233Z,3.35
2023-05-15T00:07:35.759Z,3.03
2023-05-15T00:10:02.108Z,2.92
2023-05-15T00:12:28.284Z,3.00
2023-05-15T00:14:54.206Z,3.50
2023-05-15T00:17:20.094Z,3.10
2023-05-15T00:19:46.140Z,2.95
2023-05-15T00:22:12.034Z,3.08
2023-05-15T00:24:37.809Z,2.80
2023-05-15T00:27:03.863Z,3.33
2023-05-15T00:29:29.783Z,3.20
2023-05-15T00:31:55.832Z,3.55
2023-05-15T00:34:22.097Z,3.10
2023-05-15T00:36:48.130Z,3.63
2023-05-15T00:39:13.961Z,2.95
2023-05-15T00:41:41.160Z,3.40
2023-05-15T00:44:08.949Z,2.90
2023-05-15T00:46:35.673Z,3.05
2023-05-15T00:49:04.126Z,3.40
2023-05-15T00:51:30.402Z,3.38
2023-05-15T00:53:58.107Z,2.97
2023-05-15T00:56:24.760Z,2.80
2023-05-15T00:58:53.063Z,2.90
2023-05-15T01:01:19.216Z,3.08
2023-05-15T01:03:45.331Z,2.92
2023-05-15T01:06:11.711Z,3.30
2023-05-15T01:08:42.952Z,3.58
2023-05-15T01:11:10.952Z,3.33
2023-05-15T01:13:36.805Z,3.13
2023-05-15T01:16:03.334Z,3.20
2023-05-15T01:18:31.729Z,3.20
2023-05-15T01:21:19.844Z,3.17
2023-05-15T01:24:08.288Z,3.33
2023-05-15T01:26:55.641Z,3.30
2023-05-15T01:29:31.859Z,3.13
2023-05-15T01:32:06.184Z,3.45
2023-05-15T01:34:45.260Z,3.15
2023-05-15T01:37:13.829Z,3.40
2023-05-15T01:39:42.211Z,3.53
2023-05-15T01:42:10.116Z,3.13
2023-05-15T01:44:39.903Z,2.90
2023-05-15T01:47:17.213Z,3.47
2023-05-15T01:49:44.849Z,4.05
2023-05-15T01:52:35.913Z,3.05
2023-05-15T01:55:03.664Z,2.90
2023-05-15T01:57:30.968Z,3.70
2023-05-15T01:59:58.040Z,3.75
2023-05-15T02:02:26.058Z,3.17
2023-05-15T02:04:52.486Z,3.30
2023-05-15T02:07:19.565Z,3.13
2023-05-15T02:09:46.899Z,2.83
2023-05-15T02:12:13.104Z,3.28
2023-05-15T02:14:40.576Z,3.38
2023-05-15T02:17:07.028Z,3.88
2023-05-15T02:19:32.879Z,3.40
2023-05-15T02:21:58.937Z,3.47
2023-05-15T02:24:24.814Z,3.30
2023-05-15T02:27:01.827Z,3.20
2023-05-15T02:29:27.562Z,3.67
2023-05-15T02:31:53.422Z,3.97
2023-05-15T02:34:27.568Z,3.70
2023-05-15T02:36:56.577Z,4.00
2023-05-15T02:39:24.346Z,3.58
2023-05-15T02:41:51.636Z,3.50
2023-05-15T02:44:17.800Z,3.05
2023-05-15T02:46:43.887Z,3.55
2023-05-15T02:49:10.830Z,3.65
2023-05-15T02:51:36.800Z,3.70
2023-05-15T02:54:03.406Z,4.30
2023-05-15T02:56:29.163Z,4.75
2023-05-15T02:58:55.183Z,4.50
2023-05-15T03:01:21.257Z,4.93
2023-05-15T03:03:47.352Z,5.03
2023-05-15T03:06:13.192Z,5.03
2023-05-15T03:08:38.997Z,4.85
2023-05-15T03:11:05.546Z,4.93
2023-05-15T03:13:31.346Z,5.55
2023-05-15T03:15:57.289Z,5.60
2023-05-15T03:18:23.038Z,6.97
2023-05-15T03:20:51.935Z,5.70
2023-05-15T03:23:18.148Z,6.57
2023-05-15T03:25:44.047Z,7.07
2023-05-15T03:28:10.777Z,6.28
2023-05-15T03:30:36.893Z,6.63
2023-05-15T03:33:03.261Z,7.75
2023-05-15T03:35:31.427Z,7.25
2023-05-15T03:37:57.446Z,7.10
2023-05-15T03:40:23.254Z,7.10
2023-05-15T03:42:52.636Z,6.85
2023-05-15T03:45:19.411Z,7.40
2023-05-15T03:47:45.337Z,7.20
2023-05-15T03:50:11.288Z,7.65
2023-05-15T03:52:37.469Z,7.32
2023-05-15T03:55:04.519Z,7.18
2023-05-15T03:57:34.811Z,8.30
2023-05-15T04:00:03.272Z,8.85
2023-05-15T04:02:29.091Z,8.10
2023-05-15T04:04:54.947Z,6.63
2023-05-15T04:07:20.697Z,7.97
2023-05-15T04:09:46.529Z,7.72
2023-05-15T04:12:12.284Z,7.85
2023-05-15T04:14:38.113Z,7.30
2023-05-15T04:17:03.995Z,7.45
2023-05-15T04:19:29.824Z,7.50
2023-05-15T04:21:55.900Z,6.63
2023-05-15T04:24:21.669Z,7.47
2023-05-15T04:26:47.729Z,5.75
2023-05-15T04:29:13.556Z,4.85
2023-05-15T04:31:39.567Z,6.78
2023-05-15T04:34:05.479Z,7.03
2023-05-15T04:36:32.861Z,7.82
2023-05-15T04:38:58.764Z,8.43
2023-05-15T04:41:24.775Z,8.25
2023-05-15T04:43:51.067Z,9.35
2023-05-15T04:46:16.843Z,8.52
2023-05-15T04:48:42.650Z,9.70
2023-05-15T04:51:08.489Z,10.32
2023-05-15T04:53:34.305Z,9.80
2023-05-15T04:56:00.159Z,10.45
2023-05-15T04:58:25.958Z,11.68
2023-05-15T05:00:51.789Z,13.18
2023-05-15T05:03:17.717Z,12.45
2023-05-15T05:05:43.853Z,10.95
2023-05-15T05:08:09.677Z,11.82
2023-05-15T05:10:35.592Z,10.35
2023-05-15T05:13:01.448Z,10.80
2023-05-15T05:15:27.357Z,11.90
2023-05-15T05:17:53.493Z,14.85
2023-05-15T05:20:19.674Z,20.70
2023-05-15T05:22:45.524Z,24.75
2023-05-15T05:25:11.377Z,27.58
2023-05-15T05:27:37.189Z,26.98
2023-05-15T05:30:03.214Z,27.77
2023-05-15T05:32:29.150Z,30.98
2023-05-15T05:34:55.006Z,30.83
2023-05-15T05:37:20.855Z,28.60
2023-05-15T05:39:46.734Z,28.45
2023-05-15T05:42:12.565Z,27.65
2023-05-15T05:44:38.366Z,26.83
2023-05-15T05:47:04.256Z,28.05
2023-05-15T05:49:30.076Z,29.25
2023-05-15T05:51:55.922Z,28.77
2023-05-15T05:54:21.725Z,26.67
2023-05-15T05:56:47.629Z,27.58
2023-05-15T05:59:13.482Z,26.08
2023-05-15T06:01:39.379Z,27.52
2023-05-15T06:04:05.237Z,27.05
2023-05-15T06:06:34.667Z,28.05
2023-05-15T06:09:00.544Z,28.25
2023-05-15T06:11:26.410Z,28.88
2023-05-15T06:13:52.346Z,28.00
2023-05-15T06:16:18.193Z,27.95
2023-05-15T06:18:44.135Z,28.30
2023-05-15T06:21:10.301Z,29.23
2023-05-15T06:23:36.606Z,27.42
2023-05-15T06:26:03.714Z,28.00
2023-05-15T06:28:29.487Z,27.83
2023-05-15T06:30:55.334Z,27.58
2023-05-15T06:33:21.462Z,26.80
2023-05-15T06:35:47.323Z,28.75
2023-05-15T06:38:13.075Z,28.52
2023-05-15T06:40:38.897Z,28.27
2023-05-15T06:43:04.814Z,29.45
2023-05-15T06:45:30.726Z,28.45
2023-05-15T06:47:58.538Z,26.98
2023-05-15T06:50:25.841Z,25.58
2023-05-15T06:52:51.599Z,28.92
2023-05-15T06:55:17.463Z,28.27
2023-05-15T06:57:43.250Z,27.88
2023-05-15T07:00:09.543Z,29.50
2023-05-15T07:02:35.351Z,30.98
2023-05-15T07:05:01.239Z,29.08
2023-05-15T07:07:27.104Z,30.65
2023-05-15T07:09:52.922Z,31.30
2023-05-15T07:12:18.774Z,31.30
2023-05-15T07:14:44.701Z,35.05
2023-05-15T07:17:10.523Z,33.72
2023-05-15T07:19:36.324Z,37.65
2023-05-15T07:22:05.184Z,36.33
2023-05-15T07:24:30.977Z,40.88
2023-05-15T07:26:58.520Z,39.63
2023-05-15T07:29:24.979Z,37.08
2023-05-15T07:31:50.913Z,40.97
2023-05-15T07:34:16.837Z,42.80
2023-05-15T07:36:42.688Z,42.40
2023-05-15T07:39:08.567Z,42.72
2023-05-15T07:41:34.379Z,41.97
2023-05-15T07:44:00.137Z,41.75
2023-05-15T07:46:26.482Z,40.83
2023-05-15T07:48:52.320Z,43.72
2023-05-15T07:51:18.104Z,43.03
2023-05-15T07:53:43.855Z,42.10
2023-05-15T07:56:09.979Z,43.78
2023-05-15T07:58:37.593Z,42.70
2023-05-15T08:01:04.070Z,40.70
2023-05-15T08:03:30.011Z,41.50
2023-05-15T08:05:55.833Z,39.55
2023-05-15T08:08:21.698Z,38.28
2023-05-15T08:10:47.879Z,41.38
2023-05-15T08:13:13.703Z,39.08
2023-05-15T08:15:39.719Z,38.55
2023-05-15T08:18:09.419Z,37.47
2023-05-15T08:20:35.649Z,37.20
2023-05-15T08:23:01.393Z,39.80
2023-05-15T08:25:27.362Z,37.13
2023-05-15T08:27:53.265Z,38.55
2023-05-15T08:30:19.071Z,39.03
2023-05-15T08:32:45.589Z,39.50
2023-05-15T08:35:11.480Z,40.53
2023-05-15T08:37:37.387Z,37.80
2023-05-15T08:40:09.529Z,39.75
2023-05-15T08:42:44.068Z,39.67
2023-05-15T08:45:11.417Z,38.97
2023-05-15T08:47:39.653Z,37.83
2023-05-15T08:50:13.507Z,43.30
2023-05-15T08:52:44.951Z,38.78
2023-05-15T08:55:11.107Z,39.60
2023-05-15T08:57:38.110Z,38.55
2023-05-15T09:00:09.015Z,40.78
2023-05-15T09:02:36.648Z,40.05
2023-05-15T09:05:03.121Z,39.15
2023-05-15T09:07:30.498Z,42.13
2023-05-15T09:09:57.494Z,38.85
2023-05-15T09:12:25.551Z,39.30
2023-05-15T09:14:51.858Z,38.88
2023-05-15T09:17:17.621Z,37.60
2023-05-15T09:19:43.626Z,37.28
2023-05-15T09:22:25.008Z,37.22
2023-05-15T09:24:57.375Z,38.25
2023-05-15T09:27:23.554Z,42.38
2023-05-15T09:29:53.610Z,42.15
2023-05-15T09:32:19.958Z,43.92
2023-05-15T09:34:45.987Z,42.00
2023-05-15T09:37:28.577Z,40.15
2023-05-15T09:39:54.388Z,38.78
2023-05-15T09:42:20.290Z,39.90
2023-05-15T09:44:46.081Z,42.35
2023-05-15T09:47:13.667Z,41.28
2023-05-15T09:49:43.802Z,39.55
2023-05-15T09:52:10.155Z,40.08
2023-05-15T09:54:37.100Z,36.67
2023-05-15T09:57:10.788Z,39.05
2023-05-15T09:59:43.349Z,36.53
2023-05-15T10:02:13.341Z,38.20
2023-05-15T10:04:39.189Z,38.50
2023-05-15T10:07:07.418Z,36.58
2023-05-15T10:09:33.232Z,31.67
2023-05-15T10:11:59.279Z,32.40
2023-05-15T10:14:25.938Z,30.38
2023-05-15T10:16:52.417Z,33.33
2023-05-15T10:19:21.386Z,35.03
2023-05-15T10:21:47.905Z,35.20
2023-05-15T10:24:15.781Z,32.95
2023-05-15T10:26:42.688Z,34.75
2023-05-15T10:29:13.912Z,30.77
2023-05-15T10:31:40.672Z,32.00
2023-05-15T10:34:07.960Z,31.00
2023-05-15T10:36:36.052Z,31.13
2023-05-15T10:39:06.402Z,28.85
2023-05-15T10:41:37.271Z,26.08
2023-05-15T10:44:03.178Z,27.80
2023-05-15T10:46:32.695Z,28.30
2023-05-15T10:48:59.870Z,28.17
2023-05-15T10:51:26.914Z,25.95
2023-05-15T10:53:53.534Z,24.25
2023-05-15T10:56:19.721Z,25.20
2023-05-15T10:58:50.011Z,27.77
2023-05-15T11:01:27.162Z,26.63
2023-05-15T11:04:03.970Z,29.23
2023-05-15T11:06:33.062Z,28.45
2023-05-15T11:09:27.753Z,25.90
2023-05-15T11:11:56.147Z,28.83
2023-05-15T11:14:26.558Z,30.55
2023-05-15T11:16:52.372Z,29.25
2023-05-15T11:19:27.881Z,29.55
2023-05-15T11:22:05.884Z,26.63
2023-05-15T11:24:46.288Z,24.65
2023-05-15T11:27:16.077Z,21.27
2023-05-15T11:30:06.959Z,22.08
2023-05-15T11:32:48.396Z,22.73
2023-05-15T11:35:32.537Z,18.83
2023-05-15T11:38:03.939Z,19.25
2023-05-15T11:40:44.415Z,15.98
2023-05-15T11:43:36.532Z,16.17
2023-05-15T11:46:02.304Z,15.32
2023-05-15T11:48:34.760Z,16.60
2023-05-15T11:51:01.562Z,15.95
2023-05-15T11:53:29.646Z,15.55
2023-05-15T11:55:55.673Z,15.75
2023-05-15T11:58:23.660Z,14.70
2023-05-15T12:00:51.304Z,12.60
2023-05-15T12:03:23.390Z,13.70
2023-05-15T12:05:59.212Z,12.95
2023-05-15T12:08:36.908Z,13.27
2023-05-15T12:11:03.874Z,13.85
2023-05-15T12:13:30.872Z,14.20
2023-05-15T12:15:57.190Z,14.10
2023-05-15T12:18:25.317Z,13.80
2023-05-15T12:20:52.444Z,12.60
2023-05-15T12:23:21.863Z,14.70
2023-05-15T12:25:50.472Z,14.05
2023-05-15T12:28:16.765Z,13.85
2023-05-15T12:30:43.034Z,13.40
2023-05-15T12:33:10.070Z,11.52
2023-05-15T12:35:41.493Z,12.10
2023-05-15T12:38:07.596Z,11.15
2023-05-15T12:40:34.625Z,9.27
2023-05-15T12:43:05.668Z,9.27
2023-05-15T12:45:32.524Z,8.35
2023-05-15T12:47:58.385Z,6.90
2023-05-15T12:50:25.462Z,5.53
2023-05-15T12:52:52.729Z,5.55
2023-05-15T12:55:26.097Z,8.60
2023-05-15T12:57:53.597Z,7.93
2023-05-15T13:00:21.827Z,7.60
2023-05-15T13:02:53.026Z,8.05
2023-05-15T13:05:19.418Z,7.63
2023-05-15T13:07:45.331Z,8.07
2023-05-15T13:10:11.969Z,6.93
2023-05-15T13:12:39.699Z,6.60
2023-05-15T13:15:06.393Z,6.95
2023-05-15T13:17:36.096Z,6.55
2023-05-15T13:20:01.879Z,5.47
2023-05-15T13:22:28.129Z,4.95
2023-05-15T13:24:55.945Z,4.97
2023-05-15T13:27:21.746Z,5.10
2023-05-15T13:29:47.504Z,5.45
2023-05-15T13:32:13.710Z,5.63
2023-05-15T13:34:39.486Z,6.18
2023-05-15T13:37:05.382Z,6.28
2023-05-15T13:39:31.123Z,6.28
2023-05-15T13:41:57.762Z,6.53
2023-05-15T13:44:23.545Z,5.88
2023-05-15T13:46:49.365Z,6.38
2023-05-15T13:49:15.120Z,5.38
2023-05-15T13:51:40.909Z,5.25
2023-05-15T13:54:06.700Z,5.18
2023-05-15T13:56:32.521Z,5.45
2023-05-15T13:58:58.380Z,6.00
2023-05-15T14:01:24.310Z,5.25
2023-05-15T14:03:50.194Z,5.93
2023-05-15T14:06:15.991Z,5.30
2023-05-15T14:08:41.845Z,5.28
2023-05-15T14:11:08.049Z,5.50
2023-05-15T14:13:33.959Z,4.97
2023-05-15T14:15:59.877Z,4.85
2023-05-15T14:18:25.738Z,4.72
2023-05-15T14:20:51.781Z,4.53
2023-05-15T14:23:18.476Z,4.18
2023-05-15T14:25:44.298Z,4.30
2023-05-15T14:28:10.644Z,4.25
2023-05-15T14:30:36.906Z,3.90
2023-05-15T14:33:02.800Z,4.13
2023-05-15T14:35:28.684Z,4.05
2023-05-15T14:37:54.487Z,3.63
2023-05-15T14:40:20.351Z,3.35
2023-05-15T14:42:46.152Z,4.75
2023-05-15T14:45:11.996Z,4.57
2023-05-15T14:47:38.718Z,4.30
2023-05-15T14:50:05.012Z,3.67
2023-05-15T14:52:30.858Z,3.33
2023-05-15T14:55:08.649Z,3.25
2023-05-15T14:57:35.468Z,3.78
2023-05-15T15:00:01.504Z,3.80
2023-05-15T15:02:27.411Z,3.97
2023-05-15T15:04:53.404Z,4.20
2023-05-15T15:07:19.996Z,3.15
2023-05-15T15:09:45.862Z,3.72
2023-05-15T15:12:11.661Z,3.35
2023-05-15T15:14:37.524Z,3.72
2023-05-15T15:17:03.453Z,3.75
2023-05-15T15:19:29.324Z,3.70
2023-05-15T15:21:55.198Z,3.35
2023-05-15T15:24:21.000Z,3.17
2023-05-15T15:26:46.862Z,3.90
2023-05-15T15:29:12.688Z,4.40
2023-05-15T15:31:38.595Z,4.55
2023-05-15T15:34:05.739Z,4.55
2023-05-15T15:36:32.133Z,4.30
2023-05-15T15:38:58.044Z,4.18
2023-05-15T15:41:23.941Z,4.45
2023-05-15T15:43:49.924Z,4.35
2023-05-15T15:46:15.812Z,4.55
2023-05-15T15:48:41.701Z,6.03
2023-05-15T15:51:07.567Z,7.88
2023-05-15T15:53:34.250Z,8.52
2023-05-15T15:56:00.726Z,9.93
2023-05-15T15:58:26.505Z,10.43
2023-05-15T16:00:52.392Z,10.65
2023-05-15T16:03:18.708Z,10.20
2023-05-15T16:05:44.615Z,10.68
2023-05-15T16:08:10.394Z,10.55
2023-05-15T16:10:36.376Z,11.10
2023-05-15T16:13:02.207Z,10.50
2023-05-15T16:15:28.056Z,10.48
2023-05-15T16:17:55.047Z,11.15
2023-05-15T16:20:21.567Z,11.45
2023-05-15T16:22:47.331Z,10.98
2023-05-15T16:25:13.357Z,10.95
2023-05-15T16:27:39.137Z,11.52
2023-05-15T16:30:05.534Z,11.30
2023-05-15T16:32:33.062Z,10.00
2023-05-15T16:34:58.935Z,10.07
2023-05-15T16:37:24.871Z,9.57
2023-05-15T16:39:51.204Z,9.88
2023-05-15T16:42:17.089Z,9.13
2023-05-15T16:44:42.901Z,9.90
2023-05-15T16:47:08.744Z,8.77
2023-05-15T16:49:34.591Z,8.90
2023-05-15T16:52:00.425Z,7.88
2023-05-15T16:54:26.188Z,8.07
2023-05-15T16:56:52.043Z,7.20
2023-05-15T16:59:17.976Z,7.20
2023-05-15T17:01:43.823Z,7.22
2023-05-15T17:04:09.765Z,6.80
2023-05-15T17:06:35.677Z,7.13
2023-05-15T17:09:01.652Z,7.47
2023-05-15T17:11:27.461Z,8.30
2023-05-15T17:13:53.297Z,7.47
2023-05-15T17:16:19.126Z,7.40
2023-05-15T17:18:45.015Z,7.65
2023-05-15T17:21:10.841Z,7.38
2023-05-15T17:23:36.932Z,6.80
2023-05-15T17:26:03.525Z,7.28
2023-05-15T17:28:29.374Z,8.50
2023-05-15T17:30:55.188Z,6.88
2023-05-15T17:33:21.014Z,6.43
2023-05-15T17:35:46.863Z,8.02
2023-05-15T17:38:12.801Z,8.77
2023-05-15T17:40:38.670Z,9.30
2023-05-15T17:43:04.505Z,9.13
2023-05-15T17:45:30.330Z,8.38
2023-05-15T17:48:01.985Z,8.60
2023-05-15T17:50:27.876Z,8.88
2023-05-15T17:52:53.681Z,10.38
2023-05-15T17:55:19.664Z,10.55
2023-05-15T17:57:45.449Z,12.07
2023-05-15T18:00:11.817Z,13.65
2023-05-15T18:02:37.692Z,14.30
2023-05-15T18:05:03.726Z,14.93
2023-05-15T18:07:29.676Z,16.27
2023-05-15T18:09:55.482Z,16.67
2023-05-15T18:12:21.455Z,14.65
2023-05-15T18:14:47.274Z,15.88
2023-05-15T18:17:13.121Z,13.77
2023-05-15T18:19:39.368Z,15.85
2023-05-15T18:22:05.254Z,13.85
2023-05-15T18:24:33.500Z,14.77
2023-05-15T18:26:59.305Z,14.35
2023-05-15T18:29:25.332Z,15.40
2023-05-15T18:31:51.361Z,15.73
2023-05-15T18:34:17.314Z,16.25
2023-05-15T18:36:43.383Z,15.73
2023-05-15T18:39:09.266Z,15.98
2023-05-15T18:41:38.241Z,16.33
2023-05-15T18:44:04.237Z,15.38
2023-05-15T18:46:31.032Z,15.80
2023-05-15T18:48:56.934Z,14.63
2023-05-15T18:51:23.376Z,15.43
2023-05-15T18:53:49.828Z,14.82
2023-05-15T18:56:15.647Z,14.73
2023-05-15T18:58:41.580Z,14.00
2023-05-15T19:01:07.595Z,13.80
2023-05-15T19:03:36.681Z,14.65
2023-05-15T19:06:02.685Z,14.18
2023-05-15T19:08:28.600Z,14.73
2023-05-15T19:10:54.443Z,15.73
2023-05-15T19:13:20.422Z,14.57
2023-05-15T19:15:51.040Z,12.52
2023-05-15T19:18:17.562Z,11.82
2023-05-15T19:20:43.771Z,14.55
2023-05-15T19:23:09.862Z,12.48
2023-05-15T19:25:35.927Z,13.18
2023-05-15T19:28:01.889Z,13.93
2023-05-15T19:30:27.888Z,14.65
2023-05-15T19:32:53.894Z,14.07
2023-05-15T19:35:19.938Z,15.13
2023-05-15T19:37:45.965Z,15.23
2023-05-15T19:40:12.343Z,15.25
2023-05-15T19:42:38.151Z,15.38
2023-05-15T19:45:04.509Z,16.35
2023-05-15T19:47:30.340Z,17.15
2023-05-15T19:49:56.266Z,17.48
2023-05-15T19:52:22.199Z,18.15
2023-05-15T19:54:48.290Z,18.58
2023-05-15T19:57:14.713Z,17.65
2023-05-15T19:59:40.709Z,20.75
2023-05-15T20:02:09.725Z,19.98
2023-05-15T20:04:36.264Z,20.10
2023-05-15T20:07:03.462Z,21.30
2023-05-15T20:09:29.677Z,20.92
2023-05-15T20:11:55.731Z,21.83
2023-05-15T20:14:21.621Z,20.75
2023-05-15T20:16:47.487Z,21.33
2023-05-15T20:19:14.005Z,22.10
2023-05-15T20:21:39.903Z,20.63
2023-05-15T20:24:06.217Z,20.40
2023-05-15T20:26:32.090Z,22.38
2023-05-15T20:28:57.974Z,21.65
2023-05-15T20:31:23.825Z,20.70
2023-05-15T20:33:50.093Z,20.20
2023-05-15T20:36:16.062Z,21.33
2023-05-15T20:38:43.393Z,21.52
2023-05-15T20:41:09.171Z,20.98
2023-05-15T20:43:35.002Z,19.90
2023-05-15T20:46:00.866Z,19.38
2023-05-15T20:48:26.781Z,19.92
2023-05-15T20:50:53.087Z,19.55
2023-05-15T20:53:18.918Z,19.05
2023-05-15T20:55:45.073Z,20.92
2023-05-15T20:58:10.929Z,19.95
2023-05-15T21:00:36.898Z,20.83
2023-05-15T21:03:02.747Z,20.65
2023-05-15T21:05:28.653Z,17.73
2023-05-15T21:07:54.521Z,18.80
2023-05-15T21:10:20.319Z,17.52
2023-05-15T21:12:46.214Z,17.55
2023-05-15T21:15:12.132Z,18.30
2023-05-15T21:17:38.485Z,18.50
2023-05-15T21:20:04.916Z,19.15
2023-05-15T21:22:30.758Z,18.05
2023-05-15T21:24:57.013Z,18.58
2023-05-15T21:27:23.006Z,17.70
2023-05-15T21:29:48.801Z,18.30
2023-05-15T21:32:14.717Z,18.80
2023-05-15T21:34:40.719Z,18.73
2023-05-15T21:37:06.534Z,18.05
2023-05-15T21:39:32.447Z,18.20
2023-05-15T21:41:58.362Z,16.70
2023-05-15T21:44:24.177Z,17.40
2023-05-15T21:46:50.419Z,17.15
2023-05-15T21:49:16.236Z,18.42
2023-05-15T21:51:42.039Z,18.02
2023-05-15T21:54:07.876Z,17.35
2023-05-15T21:56:33.750Z,17.85
2023-05-15T21:58:59.516Z,17.17
2023-05-15T22:01:25.502Z,18.08
2023-05-15T22:03:51.424Z,18.63
2023-05-15T22:06:17.481Z,17.00
2023-05-15T22:08:43.398Z,17.17
2023-05-15T22:11:09.218Z,16.83
2023-05-15T22:13:35.104Z,16.33
2023-05-15T22:16:02.161Z,16.25
2023-05-15T22:18:28.740Z,17.42
2023-05-15T22:20:54.793Z,17.65
2023-05-15T22:23:20.688Z,17.20
2023-05-15T22:25:48.225Z,18.08
2023-05-15T22:28:15.524Z,18.15
2023-05-15T22:30:41.336Z,18.25
2023-05-15T22:33:07.201Z,18.17
2023-05-15T22:35:33.100Z,18.83
2023-05-15T22:37:58.863Z,17.92
2023-05-15T22:40:25.459Z,17.55
2023-05-15T22:42:51.618Z,18.08
2023-05-15T22:45:18.582Z,17.95
2023-05-15T22:47:44.874Z,17.52
2023-05-15T22:50:10.872Z,17.90
2023-05-15T22:52:37.487Z,17.50
2023-05-15T22:55:03.621Z,18.17
2023-05-15T22:57:29.465Z,21.02
2023-05-15T22:59:55.318Z,18.95
2023-05-15T23:02:21.569Z,17.98
2023-05-15T23:12:28.575Z,18.65
2023-05-15T23:14:54.513Z,17.35
2023-05-15T23:17:20.267Z,18.02
2023-05-15T23:19:46.014Z,18.90
2023-05-15T23:22:11.935Z,17.58
2023-05-15T23:24:37.674Z,17.92
2023-05-15T23:27:04.877Z,18.60
2023-05-15T23:29:33.049Z,18.50
2023-05-15T23:31:59.078Z,18.30
2023-05-15T23:34:25.091Z,18.27
2023-05-15T23:36:50.867Z,18.23
2023-05-15T23:39:16.762Z,17.95
2023-05-15T23:41:42.589Z,18.55
2023-05-15T23:44:08.369Z,18.75
2023-05-15T23:46:37.185Z,19.25
2023-05-15T23:49:03.849Z,18.83
2023-05-15T23:51:30.341Z,18.92
2023-05-15T23:53:56.107Z,18.40
2023-05-15T23:56:23.073Z,18.75
2023-05-15T23:58:49.099Z,17.95
